sensor_id;sensor_type;location;lat;lon;timestamp;temperature;humidity
37340;DHT22;23223;51.006;7.610;2022-07-21T00:01:25;19.60;99.90
37340;DHT22;23223;51.006;7.610;2022-07-21T00:03:51;19.60;99.90
37340;DHT22;23223;51.006;7.610;2022-07-21T00:06:17;19.60;99.90
37340;DHT22;23223;51.006;7.610;2022-07-21T00:08:42;19.60;99.90
37340;DHT22;23223;51.006;7.610;2022-07-21T00:11:08;19.60;99.90
37340;DHT22;23223;51.006;7.610;2022-07-21T00:13:34;19.70;99.90
37340;DHT22;23223;51.006;7.610;2022-07-21T00:16:00;19.80;99.90
37340;DHT22;23223;51.006;7.610;2022-07-21T00:18:26;20.10;99.90
37340;DHT22;23223;51.006;7.610;2022-07-21T00:20:58;20.70;99.90
37340;DHT22;23223;51.006;7.610;2022-07-21T00:23:25;21.10;99.90
37340;DHT22;23223;51.006;7.610;2022-07-21T00:25:52;21.10;99.90
37340;DHT22;23223;51.006;7.610;2022-07-21T00:28:18;20.90;99.90
37340;DHT22;23223;51.006;7.610;2022-07-21T00:30:44;21.10;99.90
37340;DHT22;23223;51.006;7.610;2022-07-21T00:33:10;21.40;99.90
37340;DHT22;23223;51.006;7.610;2022-07-21T00:35:36;21.60;99.90
37340;DHT22;23223;51.006;7.610;2022-07-21T00:38:03;21.80;99.90
37340;DHT22;23223;51.006;7.610;2022-07-21T00:40:29;22.20;99.90
37340;DHT22;23223;51.006;7.610;2022-07-21T00:42:55;22.40;99.90
37340;DHT22;23223;51.006;7.610;2022-07-21T00:45:21;22.20;99.90
37340;DHT22;23223;51.006;7.610;2022-07-21T00:47:47;21.70;99.90
37340;DHT22;23223;51.006;7.610;2022-07-21T00:50:16;21.30;99.90
37340;DHT22;23223;51.006;7.610;2022-07-21T00:52:42;20.70;99.90
37340;DHT22;23223;51.006;7.610;2022-07-21T00:55:12;20.30;99.90
37340;DHT22;23223;51.006;7.610;2022-07-21T00:57:39;20.00;99.90
37340;DHT22;23223;51.006;7.610;2022-07-21T01:00:09;19.70;99.90
37340;DHT22;23223;51.006;7.610;2022-07-21T01:02:35;19.50;99.90
37340;DHT22;23223;51.006;7.610;2022-07-21T01:05:08;19.70;99.90
37340;DHT22;23223;51.006;7.610;2022-07-21T01:07:44;19.90;99.90
37340;DHT22;23223;51.006;7.610;2022-07-21T01:10:11;19.90;99.90
37340;DHT22;23223;51.006;7.610;2022-07-21T01:12:37;19.80;99.90
37340;DHT22;23223;51.006;7.610;2022-07-21T01:15:08;19.80;99.90
37340;DHT22;23223;51.006;7.610;2022-07-21T01:17:34;20.40;99.90
37340;DHT22;23223;51.006;7.610;2022-07-21T01:20:13;20.50;99.90
37340;DHT22;23223;51.006;7.610;2022-07-21T01:22:41;20.80;99.90
37340;DHT22;23223;51.006;7.610;2022-07-21T01:25:07;21.30;99.90
37340;DHT22;23223;51.006;7.610;2022-07-21T01:27:34;21.20;99.90
37340;DHT22;23223;51.006;7.610;2022-07-21T01:30:00;21.00;99.90
37340;DHT22;23223;51.006;7.610;2022-07-21T01:32:26;20.60;99.90
37340;DHT22;23223;51.006;7.610;2022-07-21T01:34:52;20.30;99.90
37340;DHT22;23223;51.006;7.610;2022-07-21T01:37:22;20.40;99.90
37340;DHT22;23223;51.006;7.610;2022-07-21T01:39:52;20.80;99.90
37340;DHT22;23223;51.006;7.610;2022-07-21T01:42:36;20.90;99.90
37340;DHT22;23223;51.006;7.610;2022-07-21T01:45:03;21.10;99.90
37340;DHT22;23223;51.006;7.610;2022-07-21T01:47:29;21.30;99.90
37340;DHT22;23223;51.006;7.610;2022-07-21T01:49:55;21.10;99.90
37340;DHT22;23223;51.006;7.610;2022-07-21T01:52:20;20.60;99.90
37340;DHT22;23223;51.006;7.610;2022-07-21T01:54:46;20.20;99.90
37340;DHT22;23223;51.006;7.610;2022-07-21T01:57:12;19.90;99.90
37340;DHT22;23223;51.006;7.610;2022-07-21T01:59:38;20.10;99.90
37340;DHT22;23223;51.006;7.610;2022-07-21T02:02:04;20.20;99.90
37340;DHT22;23223;51.006;7.610;2022-07-21T02:04:29;20.00;99.90
37340;DHT22;23223;51.006;7.610;2022-07-21T02:06:55;19.70;99.90
37340;DHT22;23223;51.006;7.610;2022-07-21T02:09:21;19.40;99.90
37340;DHT22;23223;51.006;7.610;2022-07-21T02:11:47;19.10;99.90
37340;DHT22;23223;51.006;7.610;2022-07-21T02:14:13;19.00;99.90
37340;DHT22;23223;51.006;7.610;2022-07-21T02:16:38;18.70;99.90
37340;DHT22;23223;51.006;7.610;2022-07-21T02:19:04;18.80;99.90
37340;DHT22;23223;51.006;7.610;2022-07-21T02:21:30;18.70;99.90
37340;DHT22;23223;51.006;7.610;2022-07-21T02:23:55;18.50;99.90
37340;DHT22;23223;51.006;7.610;2022-07-21T02:26:21;18.30;99.90
37340;DHT22;23223;51.006;7.610;2022-07-21T02:28:47;18.20;99.90
37340;DHT22;23223;51.006;7.610;2022-07-21T02:31:13;18.20;99.90
37340;DHT22;23223;51.006;7.610;2022-07-21T02:33:39;18.30;99.90
37340;DHT22;23223;51.006;7.610;2022-07-21T02:36:05;18.40;99.90
37340;DHT22;23223;51.006;7.610;2022-07-21T02:38:31;18.50;99.90
37340;DHT22;23223;51.006;7.610;2022-07-21T02:40:56;18.50;99.90
37340;DHT22;23223;51.006;7.610;2022-07-21T02:43:22;18.60;99.90
37340;DHT22;23223;51.006;7.610;2022-07-21T02:45:48;18.70;99.90
37340;DHT22;23223;51.006;7.610;2022-07-21T02:48:13;18.60;99.90
37340;DHT22;23223;51.006;7.610;2022-07-21T02:50:42;18.50;99.90
37340;DHT22;23223;51.006;7.610;2022-07-21T02:53:11;18.40;99.90
37340;DHT22;23223;51.006;7.610;2022-07-21T02:55:37;18.40;99.90
37340;DHT22;23223;51.006;7.610;2022-07-21T03:00:30;18.10;99.90
37340;DHT22;23223;51.006;7.610;2022-07-21T03:02:55;18.10;99.90
37340;DHT22;23223;51.006;7.610;2022-07-21T03:05:21;18.00;99.90
37340;DHT22;23223;51.006;7.610;2022-07-21T03:07:47;18.20;99.90
37340;DHT22;23223;51.006;7.610;2022-07-21T03:10:12;18.40;99.90
37340;DHT22;23223;51.006;7.610;2022-07-21T03:12:38;18.50;99.90
37340;DHT22;23223;51.006;7.610;2022-07-21T03:15:04;18.80;99.90
37340;DHT22;23223;51.006;7.610;2022-07-21T03:17:30;19.30;99.90
37340;DHT22;23223;51.006;7.610;2022-07-21T03:19:56;19.90;99.90
37340;DHT22;23223;51.006;7.610;2022-07-21T03:22:22;20.20;99.90
37340;DHT22;23223;51.006;7.610;2022-07-21T03:24:48;20.00;99.90
37340;DHT22;23223;51.006;7.610;2022-07-21T03:27:16;19.60;99.90
37340;DHT22;23223;51.006;7.610;2022-07-21T03:29:42;19.20;99.90
37340;DHT22;23223;51.006;7.610;2022-07-21T03:32:08;18.90;99.90
37340;DHT22;23223;51.006;7.610;2022-07-21T03:34:34;18.60;99.90
37340;DHT22;23223;51.006;7.610;2022-07-21T03:36:59;18.40;99.90
37340;DHT22;23223;51.006;7.610;2022-07-21T03:39:25;18.20;99.90
37340;DHT22;23223;51.006;7.610;2022-07-21T03:41:51;18.20;99.90
37340;DHT22;23223;51.006;7.610;2022-07-21T03:44:16;18.20;99.90
37340;DHT22;23223;51.006;7.610;2022-07-21T03:46:42;18.20;99.90
37340;DHT22;23223;51.006;7.610;2022-07-21T03:49:08;18.10;99.90
37340;DHT22;23223;51.006;7.610;2022-07-21T03:51:34;18.00;99.90
37340;DHT22;23223;51.006;7.610;2022-07-21T03:53:59;17.80;99.90
37340;DHT22;23223;51.006;7.610;2022-07-21T03:56:27;17.80;99.90
37340;DHT22;23223;51.006;7.610;2022-07-21T03:58:53;17.90;99.90
37340;DHT22;23223;51.006;7.610;2022-07-21T04:01:19;18.00;99.90
37340;DHT22;23223;51.006;7.610;2022-07-21T04:03:45;17.90;99.90
37340;DHT22;23223;51.006;7.610;2022-07-21T04:06:11;17.80;99.90
37340;DHT22;23223;51.006;7.610;2022-07-21T04:08:38;17.80;99.90
37340;DHT22;23223;51.006;7.610;2022-07-21T04:11:05;17.70;99.90
37340;DHT22;23223;51.006;7.610;2022-07-21T04:13:31;17.60;99.90
37340;DHT22;23223;51.006;7.610;2022-07-21T04:15:57;17.50;99.90
37340;DHT22;23223;51.006;7.610;2022-07-21T04:18:22;17.50;99.90
37340;DHT22;23223;51.006;7.610;2022-07-21T04:20:48;17.40;99.90
37340;DHT22;23223;51.006;7.610;2022-07-21T04:23:13;17.40;99.90
37340;DHT22;23223;51.006;7.610;2022-07-21T04:25:39;17.40;99.90
37340;DHT22;23223;51.006;7.610;2022-07-21T04:28:06;17.40;99.90
37340;DHT22;23223;51.006;7.610;2022-07-21T04:30:33;17.50;99.90
37340;DHT22;23223;51.006;7.610;2022-07-21T04:32:59;17.80;99.90
37340;DHT22;23223;51.006;7.610;2022-07-21T04:35:25;18.10;99.90
37340;DHT22;23223;51.006;7.610;2022-07-21T04:37:50;18.40;99.90
37340;DHT22;23223;51.006;7.610;2022-07-21T04:40:16;18.60;99.90
37340;DHT22;23223;51.006;7.610;2022-07-21T04:42:43;18.70;99.90
37340;DHT22;23223;51.006;7.610;2022-07-21T04:45:11;18.90;99.90
37340;DHT22;23223;51.006;7.610;2022-07-21T04:47:52;19.10;99.90
37340;DHT22;23223;51.006;7.610;2022-07-21T04:50:22;19.20;99.90
37340;DHT22;23223;51.006;7.610;2022-07-21T04:52:48;19.50;99.90
37340;DHT22;23223;51.006;7.610;2022-07-21T04:55:15;19.60;99.90
37340;DHT22;23223;51.006;7.610;2022-07-21T04:57:44;19.70;99.90
37340;DHT22;23223;51.006;7.610;2022-07-21T05:00:13;19.60;99.90
37340;DHT22;23223;51.006;7.610;2022-07-21T05:02:41;19.40;99.90
37340;DHT22;23223;51.006;7.610;2022-07-21T05:05:08;19.20;99.90
37340;DHT22;23223;51.006;7.610;2022-07-21T05:07:34;19.10;99.90
37340;DHT22;23223;51.006;7.610;2022-07-21T05:10:10;19.00;99.90
37340;DHT22;23223;51.006;7.610;2022-07-21T05:12:36;18.80;99.90
37340;DHT22;23223;51.006;7.610;2022-07-21T05:15:05;18.90;99.90
37340;DHT22;23223;51.006;7.610;2022-07-21T05:17:32;19.10;99.90
37340;DHT22;23223;51.006;7.610;2022-07-21T05:20:00;19.30;99.90
37340;DHT22;23223;51.006;7.610;2022-07-21T05:22:27;19.30;99.90
37340;DHT22;23223;51.006;7.610;2022-07-21T05:24:53;19.20;99.90
37340;DHT22;23223;51.006;7.610;2022-07-21T05:27:20;19.30;99.90
37340;DHT22;23223;51.006;7.610;2022-07-21T05:29:46;19.30;99.90
37340;DHT22;23223;51.006;7.610;2022-07-21T05:32:13;19.40;99.90
37340;DHT22;23223;51.006;7.610;2022-07-21T05:34:41;19.60;99.90
37340;DHT22;23223;51.006;7.610;2022-07-21T05:37:08;19.80;99.90
37340;DHT22;23223;51.006;7.610;2022-07-21T05:39:35;19.90;99.90
37340;DHT22;23223;51.006;7.610;2022-07-21T05:42:03;19.90;99.90
37340;DHT22;23223;51.006;7.610;2022-07-21T05:44:29;19.80;99.90
37340;DHT22;23223;51.006;7.610;2022-07-21T05:46:58;19.60;99.90
37340;DHT22;23223;51.006;7.610;2022-07-21T05:49:24;19.60;99.90
37340;DHT22;23223;51.006;7.610;2022-07-21T05:51:51;19.90;99.90
37340;DHT22;23223;51.006;7.610;2022-07-21T05:54:17;20.00;99.90
37340;DHT22;23223;51.006;7.610;2022-07-21T05:56:44;20.10;99.90
37340;DHT22;23223;51.006;7.610;2022-07-21T05:59:11;20.10;99.90
37340;DHT22;23223;51.006;7.610;2022-07-21T06:01:38;20.10;99.90
37340;DHT22;23223;51.006;7.610;2022-07-21T06:04:04;20.10;99.90
37340;DHT22;23223;51.006;7.610;2022-07-21T06:06:30;20.00;99.90
37340;DHT22;23223;51.006;7.610;2022-07-21T06:08:57;19.90;99.90
37340;DHT22;23223;51.006;7.610;2022-07-21T06:11:25;19.90;99.90
37340;DHT22;23223;51.006;7.610;2022-07-21T06:13:53;20.00;99.90
37340;DHT22;23223;51.006;7.610;2022-07-21T06:16:20;20.30;99.90
37340;DHT22;23223;51.006;7.610;2022-07-21T06:18:45;20.40;99.90
37340;DHT22;23223;51.006;7.610;2022-07-21T06:21:11;20.50;99.90
37340;DHT22;23223;51.006;7.610;2022-07-21T06:23:38;20.50;99.90
37340;DHT22;23223;51.006;7.610;2022-07-21T06:26:04;20.60;99.90
37340;DHT22;23223;51.006;7.610;2022-07-21T06:28:30;20.60;99.90
37340;DHT22;23223;51.006;7.610;2022-07-21T06:30:56;20.50;99.90
37340;DHT22;23223;51.006;7.610;2022-07-21T06:33:23;20.20;99.90
37340;DHT22;23223;51.006;7.610;2022-07-21T06:35:49;20.10;99.90
37340;DHT22;23223;51.006;7.610;2022-07-21T06:38:15;20.10;99.90
37340;DHT22;23223;51.006;7.610;2022-07-21T06:40:41;20.10;99.90
37340;DHT22;23223;51.006;7.610;2022-07-21T06:43:07;20.10;99.90
37340;DHT22;23223;51.006;7.610;2022-07-21T06:45:35;20.10;99.90
37340;DHT22;23223;51.006;7.610;2022-07-21T06:48:06;20.10;99.90
37340;DHT22;23223;51.006;7.610;2022-07-21T06:50:33;20.10;99.90
37340;DHT22;23223;51.006;7.610;2022-07-21T06:52:59;20.10;99.90
37340;DHT22;23223;51.006;7.610;2022-07-21T06:55:25;20.00;99.90
37340;DHT22;23223;51.006;7.610;2022-07-21T06:57:51;20.10;99.90
37340;DHT22;23223;51.006;7.610;2022-07-21T07:00:17;20.00;99.90
37340;DHT22;23223;51.006;7.610;2022-07-21T07:02:43;20.00;99.90
37340;DHT22;23223;51.006;7.610;2022-07-21T07:05:12;19.90;99.90
37340;DHT22;23223;51.006;7.610;2022-07-21T07:07:38;19.90;99.90
37340;DHT22;23223;51.006;7.610;2022-07-21T07:10:05;19.90;99.90
37340;DHT22;23223;51.006;7.610;2022-07-21T07:12:32;20.00;99.90
37340;DHT22;23223;51.006;7.610;2022-07-21T07:14:58;20.40;99.90
37340;DHT22;23223;51.006;7.610;2022-07-21T07:17:25;20.80;99.90
37340;DHT22;23223;51.006;7.610;2022-07-21T07:19:52;21.30;99.90
37340;DHT22;23223;51.006;7.610;2022-07-21T07:22:18;21.50;99.90
37340;DHT22;23223;51.006;7.610;2022-07-21T07:24:44;21.60;99.90
37340;DHT22;23223;51.006;7.610;2022-07-21T07:27:10;21.70;99.90
37340;DHT22;23223;51.006;7.610;2022-07-21T07:29:36;21.80;99.90
37340;DHT22;23223;51.006;7.610;2022-07-21T07:32:02;22.20;99.90
37340;DHT22;23223;51.006;7.610;2022-07-21T07:34:28;22.50;99.90
37340;DHT22;23223;51.006;7.610;2022-07-21T07:36:55;22.60;99.90
37340;DHT22;23223;51.006;7.610;2022-07-21T07:39:21;22.90;99.90
37340;DHT22;23223;51.006;7.610;2022-07-21T07:41:47;22.90;99.90
37340;DHT22;23223;51.006;7.610;2022-07-21T07:44:14;22.70;99.90
37340;DHT22;23223;51.006;7.610;2022-07-21T07:46:41;22.80;99.90
37340;DHT22;23223;51.006;7.610;2022-07-21T07:49:08;22.20;99.90
37340;DHT22;23223;51.006;7.610;2022-07-21T07:51:35;22.20;99.90
37340;DHT22;23223;51.006;7.610;2022-07-21T07:54:02;22.20;99.90
37340;DHT22;23223;51.006;7.610;2022-07-21T07:56:29;22.00;99.90
37340;DHT22;23223;51.006;7.610;2022-07-21T07:58:57;22.00;99.90
37340;DHT22;23223;51.006;7.610;2022-07-21T08:01:23;21.90;99.90
37340;DHT22;23223;51.006;7.610;2022-07-21T08:03:50;22.30;99.90
37340;DHT22;23223;51.006;7.610;2022-07-21T08:06:16;22.80;99.90
37340;DHT22;23223;51.006;7.610;2022-07-21T08:08:42;23.10;99.90
37340;DHT22;23223;51.006;7.610;2022-07-21T08:11:09;23.40;99.90
37340;DHT22;23223;51.006;7.610;2022-07-21T08:13:37;23.10;99.90
37340;DHT22;23223;51.006;7.610;2022-07-21T08:16:03;22.90;99.90
37340;DHT22;23223;51.006;7.610;2022-07-21T08:18:30;22.70;99.90
37340;DHT22;23223;51.006;7.610;2022-07-21T08:20:56;22.50;99.90
37340;DHT22;23223;51.006;7.610;2022-07-21T08:23:22;22.70;99.90
37340;DHT22;23223;51.006;7.610;2022-07-21T08:25:48;23.10;99.90
37340;DHT22;23223;51.006;7.610;2022-07-21T08:28:14;23.70;99.90
37340;DHT22;23223;51.006;7.610;2022-07-21T08:30:41;24.50;99.90
37340;DHT22;23223;51.006;7.610;2022-07-21T08:33:07;25.30;99.90
37340;DHT22;23223;51.006;7.610;2022-07-21T08:35:34;25.90;99.90
37340;DHT22;23223;51.006;7.610;2022-07-21T08:38:04;26.20;99.90
37340;DHT22;23223;51.006;7.610;2022-07-21T08:40:35;26.30;99.90
37340;DHT22;23223;51.006;7.610;2022-07-21T08:43:02;26.30;99.90
37340;DHT22;23223;51.006;7.610;2022-07-21T08:45:29;26.20;99.90
37340;DHT22;23223;51.006;7.610;2022-07-21T08:47:58;26.40;99.90
37340;DHT22;23223;51.006;7.610;2022-07-21T08:50:26;26.70;99.90
37340;DHT22;23223;51.006;7.610;2022-07-21T08:52:54;26.60;99.90
37340;DHT22;23223;51.006;7.610;2022-07-21T08:55:21;26.60;99.90
37340;DHT22;23223;51.006;7.610;2022-07-21T08:57:49;26.60;99.90
37340;DHT22;23223;51.006;7.610;2022-07-21T09:00:15;26.40;99.90
37340;DHT22;23223;51.006;7.610;2022-07-21T09:02:42;26.30;99.90
37340;DHT22;23223;51.006;7.610;2022-07-21T09:05:09;26.00;99.90
37340;DHT22;23223;51.006;7.610;2022-07-21T09:07:55;25.70;99.90
37340;DHT22;23223;51.006;7.610;2022-07-21T09:10:24;25.40;99.90
37340;DHT22;23223;51.006;7.610;2022-07-21T09:12:56;25.20;99.90
37340;DHT22;23223;51.006;7.610;2022-07-21T09:15:24;24.90;99.90
37340;DHT22;23223;51.006;7.610;2022-07-21T09:18:10;24.50;99.90
37340;DHT22;23223;51.006;7.610;2022-07-21T09:20:38;24.00;99.90
37340;DHT22;23223;51.006;7.610;2022-07-21T09:23:10;23.70;99.90
37340;DHT22;23223;51.006;7.610;2022-07-21T09:28:13;23.30;99.90
37340;DHT22;23223;51.006;7.610;2022-07-21T09:31:11;23.50;99.90
37340;DHT22;23223;51.006;7.610;2022-07-21T09:33:42;23.80;99.90
37340;DHT22;23223;51.006;7.610;2022-07-21T09:36:11;24.20;99.90
37340;DHT22;23223;51.006;7.610;2022-07-21T09:38:50;24.70;99.90
37340;DHT22;23223;51.006;7.610;2022-07-21T09:41:24;25.00;99.90
37340;DHT22;23223;51.006;7.610;2022-07-21T09:43:54;25.80;99.90
37340;DHT22;23223;51.006;7.610;2022-07-21T09:46:23;26.90;99.90
37340;DHT22;23223;51.006;7.610;2022-07-21T09:48:52;27.80;99.90
37340;DHT22;23223;51.006;7.610;2022-07-21T09:53:58;28.30;99.90
37340;DHT22;23223;51.006;7.610;2022-07-21T09:56:26;28.40;99.90
37340;DHT22;23223;51.006;7.610;2022-07-21T09:58:54;28.50;99.90
37340;DHT22;23223;51.006;7.610;2022-07-21T10:01:20;28.40;99.90
37340;DHT22;23223;51.006;7.610;2022-07-21T10:03:49;27.90;99.90
37340;DHT22;23223;51.006;7.610;2022-07-21T10:06:17;27.60;99.90
37340;DHT22;23223;51.006;7.610;2022-07-21T10:08:44;27.40;99.90
37340;DHT22;23223;51.006;7.610;2022-07-21T10:11:10;27.10;99.90
37340;DHT22;23223;51.006;7.610;2022-07-21T10:13:38;26.90;99.90
37340;DHT22;23223;51.006;7.610;2022-07-21T10:16:05;26.70;99.90
37340;DHT22;23223;51.006;7.610;2022-07-21T10:18:35;26.70;99.90
37340;DHT22;23223;51.006;7.610;2022-07-21T10:23:41;25.30;99.90
37340;DHT22;23223;51.006;7.610;2022-07-21T10:26:08;25.00;99.90
37340;DHT22;23223;51.006;7.610;2022-07-21T10:28:34;24.80;99.90
37340;DHT22;23223;51.006;7.610;2022-07-21T10:31:22;24.30;99.90
37340;DHT22;23223;51.006;7.610;2022-07-21T10:41:42;24.30;99.90
37340;DHT22;23223;51.006;7.610;2022-07-21T10:55:14;25.20;99.90
37340;DHT22;23223;51.006;7.610;2022-07-21T10:58:16;25.30;99.90
37340;DHT22;23223;51.006;7.610;2022-07-21T11:03:22;26.10;99.90
37340;DHT22;23223;51.006;7.610;2022-07-21T11:11:21;25.60;99.90
37340;DHT22;23223;51.006;7.610;2022-07-21T11:14:09;25.20;99.90
37340;DHT22;23223;51.006;7.610;2022-07-21T11:19:39;25.30;99.90
37340;DHT22;23223;51.006;7.610;2022-07-21T11:22:26;25.30;99.90
37340;DHT22;23223;51.006;7.610;2022-07-21T11:25:01;25.20;99.90
37340;DHT22;23223;51.006;7.610;2022-07-21T11:27:29;25.40;99.90
37340;DHT22;23223;51.006;7.610;2022-07-21T11:29:56;25.90;99.90
37340;DHT22;23223;51.006;7.610;2022-07-21T11:32:23;26.00;99.90
37340;DHT22;23223;51.006;7.610;2022-07-21T11:37:27;25.90;99.90
37340;DHT22;23223;51.006;7.610;2022-07-21T11:39:53;25.70;99.90
37340;DHT22;23223;51.006;7.610;2022-07-21T11:42:19;25.50;99.90
37340;DHT22;23223;51.006;7.610;2022-07-21T11:44:46;25.10;99.90
37340;DHT22;23223;51.006;7.610;2022-07-21T11:47:13;24.60;99.90
37340;DHT22;23223;51.006;7.610;2022-07-21T11:49:41;24.40;99.90
37340;DHT22;23223;51.006;7.610;2022-07-21T11:54:44;24.10;99.90
37340;DHT22;23223;51.006;7.610;2022-07-21T11:57:11;24.10;99.90
37340;DHT22;23223;51.006;7.610;2022-07-21T11:59:38;24.10;99.90
37340;DHT22;23223;51.006;7.610;2022-07-21T12:02:27;24.20;99.90
37340;DHT22;23223;51.006;7.610;2022-07-21T12:04:58;24.20;99.90
37340;DHT22;23223;51.006;7.610;2022-07-21T12:07:40;23.80;99.90
37340;DHT22;23223;51.006;7.610;2022-07-21T12:10:14;23.60;99.90
37340;DHT22;23223;51.006;7.610;2022-07-21T12:12:45;23.80;99.90
37340;DHT22;23223;51.006;7.610;2022-07-21T12:15:32;23.70;99.90
37340;DHT22;23223;51.006;7.610;2022-07-21T12:18:01;23.50;99.90
37340;DHT22;23223;51.006;7.610;2022-07-21T12:20:40;23.30;99.90
37340;DHT22;23223;51.006;7.610;2022-07-21T12:23:28;23.50;99.90
37340;DHT22;23223;51.006;7.610;2022-07-21T12:25:56;23.70;99.90
37340;DHT22;23223;51.006;7.610;2022-07-21T12:28:50;24.00;99.90
37340;DHT22;23223;51.006;7.610;2022-07-21T12:31:21;24.20;99.90
37340;DHT22;23223;51.006;7.610;2022-07-21T12:33:48;24.20;99.90
37340;DHT22;23223;51.006;7.610;2022-07-21T12:36:14;24.00;99.90
37340;DHT22;23223;51.006;7.610;2022-07-21T12:38:47;23.90;99.90
37340;DHT22;23223;51.006;7.610;2022-07-21T12:41:16;23.90;99.90
37340;DHT22;23223;51.006;7.610;2022-07-21T12:43:42;24.00;99.90
37340;DHT22;23223;51.006;7.610;2022-07-21T12:46:13;24.10;99.90
37340;DHT22;23223;51.006;7.610;2022-07-21T12:48:44;24.00;99.90
37340;DHT22;23223;51.006;7.610;2022-07-21T12:51:15;24.00;99.90
37340;DHT22;23223;51.006;7.610;2022-07-21T12:53:50;23.70;99.90
37340;DHT22;23223;51.006;7.610;2022-07-21T12:56:19;23.40;99.90
37340;DHT22;23223;51.006;7.610;2022-07-21T12:58:45;23.10;99.90
37340;DHT22;23223;51.006;7.610;2022-07-21T13:01:11;22.80;99.90
37340;DHT22;23223;51.006;7.610;2022-07-21T13:03:37;22.60;99.90
37340;DHT22;23223;51.006;7.610;2022-07-21T13:06:05;22.40;99.90
37340;DHT22;23223;51.006;7.610;2022-07-21T13:08:32;22.20;99.90
37340;DHT22;23223;51.006;7.610;2022-07-21T13:10:58;22.20;99.90
37340;DHT22;23223;51.006;7.610;2022-07-21T13:13:24;22.20;99.90
37340;DHT22;23223;51.006;7.610;2022-07-21T13:15:50;21.90;99.90
37340;DHT22;23223;51.006;7.610;2022-07-21T13:18:15;21.90;99.90
37340;DHT22;23223;51.006;7.610;2022-07-21T13:20:41;21.70;99.90
37340;DHT22;23223;51.006;7.610;2022-07-21T13:23:06;21.60;99.90
37340;DHT22;23223;51.006;7.610;2022-07-21T13:25:33;21.40;99.90
37340;DHT22;23223;51.006;7.610;2022-07-21T13:28:00;21.30;99.90
37340;DHT22;23223;51.006;7.610;2022-07-21T13:30:25;21.40;99.90
37340;DHT22;23223;51.006;7.610;2022-07-21T13:32:51;21.80;99.90
37340;DHT22;23223;51.006;7.610;2022-07-21T13:35:17;21.90;99.90
37340;DHT22;23223;51.006;7.610;2022-07-21T13:37:42;22.00;99.90
37340;DHT22;23223;51.006;7.610;2022-07-21T13:40:08;22.10;99.90
37340;DHT22;23223;51.006;7.610;2022-07-21T13:42:34;21.80;99.90
37340;DHT22;23223;51.006;7.610;2022-07-21T13:44:59;21.70;99.90
37340;DHT22;23223;51.006;7.610;2022-07-21T13:47:25;21.60;99.90
37340;DHT22;23223;51.006;7.610;2022-07-21T13:49:50;21.60;99.90
37340;DHT22;23223;51.006;7.610;2022-07-21T13:52:16;21.40;99.90
37340;DHT22;23223;51.006;7.610;2022-07-21T13:54:41;21.20;99.90
37340;DHT22;23223;51.006;7.610;2022-07-21T13:57:07;21.10;99.90
37340;DHT22;23223;51.006;7.610;2022-07-21T13:59:33;21.10;99.90
37340;DHT22;23223;51.006;7.610;2022-07-21T14:01:58;21.30;99.90
37340;DHT22;23223;51.006;7.610;2022-07-21T14:04:24;21.40;99.90
37340;DHT22;23223;51.006;7.610;2022-07-21T14:06:49;21.50;99.90
37340;DHT22;23223;51.006;7.610;2022-07-21T14:09:16;21.40;99.90
37340;DHT22;23223;51.006;7.610;2022-07-21T14:11:43;21.40;99.90
37340;DHT22;23223;51.006;7.610;2022-07-21T14:14:09;21.20;99.90
37340;DHT22;23223;51.006;7.610;2022-07-21T14:16:34;21.00;99.90
37340;DHT22;23223;51.006;7.610;2022-07-21T14:19:00;21.00;99.90
37340;DHT22;23223;51.006;7.610;2022-07-21T14:21:26;20.90;99.90
37340;DHT22;23223;51.006;7.610;2022-07-21T14:23:52;20.80;99.90
37340;DHT22;23223;51.006;7.610;2022-07-21T14:26:37;20.60;99.90
37340;DHT22;23223;51.006;7.610;2022-07-21T14:29:04;20.30;99.90
37340;DHT22;23223;51.006;7.610;2022-07-21T14:31:30;20.10;99.90
37340;DHT22;23223;51.006;7.610;2022-07-21T14:33:56;19.80;99.90
37340;DHT22;23223;51.006;7.610;2022-07-21T14:36:21;19.70;99.90
37340;DHT22;23223;51.006;7.610;2022-07-21T14:38:47;19.70;99.90
37340;DHT22;23223;51.006;7.610;2022-07-21T14:41:12;19.70;99.90
37340;DHT22;23223;51.006;7.610;2022-07-21T14:43:38;19.80;99.90
37340;DHT22;23223;51.006;7.610;2022-07-21T14:46:03;19.90;99.90
37340;DHT22;23223;51.006;7.610;2022-07-21T14:48:29;19.90;99.90
37340;DHT22;23223;51.006;7.610;2022-07-21T14:50:54;20.00;99.90
37340;DHT22;23223;51.006;7.610;2022-07-21T14:53:20;20.10;99.90
37340;DHT22;23223;51.006;7.610;2022-07-21T14:55:46;20.30;99.90
37340;DHT22;23223;51.006;7.610;2022-07-21T14:58:12;20.60;99.90
37340;DHT22;23223;51.006;7.610;2022-07-21T15:00:37;20.70;99.90
37340;DHT22;23223;51.006;7.610;2022-07-21T15:03:05;20.70;99.90
37340;DHT22;23223;51.006;7.610;2022-07-21T15:05:31;20.70;99.90
37340;DHT22;23223;51.006;7.610;2022-07-21T15:07:56;20.80;99.90
37340;DHT22;23223;51.006;7.610;2022-07-21T15:10:22;21.10;99.90
37340;DHT22;23223;51.006;7.610;2022-07-21T15:12:48;21.10;99.90
37340;DHT22;23223;51.006;7.610;2022-07-21T15:15:14;21.20;99.90
37340;DHT22;23223;51.006;7.610;2022-07-21T15:17:40;20.90;99.90
37340;DHT22;23223;51.006;7.610;2022-07-21T15:20:07;20.70;99.90
37340;DHT22;23223;51.006;7.610;2022-07-21T15:22:33;20.60;99.90
37340;DHT22;23223;51.006;7.610;2022-07-21T15:25:00;20.60;99.90
37340;DHT22;23223;51.006;7.610;2022-07-21T15:27:27;20.80;99.90
37340;DHT22;23223;51.006;7.610;2022-07-21T15:29:53;21.10;99.90
37340;DHT22;23223;51.006;7.610;2022-07-21T15:32:19;21.20;99.90
37340;DHT22;23223;51.006;7.610;2022-07-21T15:34:44;21.30;99.90
37340;DHT22;23223;51.006;7.610;2022-07-21T15:37:10;21.20;99.90
37340;DHT22;23223;51.006;7.610;2022-07-21T15:39:37;21.10;99.90
37340;DHT22;23223;51.006;7.610;2022-07-21T15:42:07;20.80;99.90
37340;DHT22;23223;51.006;7.610;2022-07-21T15:44:34;20.70;99.90
37340;DHT22;23223;51.006;7.610;2022-07-21T15:46:59;20.70;99.90
37340;DHT22;23223;51.006;7.610;2022-07-21T15:49:25;20.60;99.90
37340;DHT22;23223;51.006;7.610;2022-07-21T15:51:50;20.50;99.90
37340;DHT22;23223;51.006;7.610;2022-07-21T15:54:16;20.60;99.90
37340;DHT22;23223;51.006;7.610;2022-07-21T15:56:42;20.60;99.90
37340;DHT22;23223;51.006;7.610;2022-07-21T15:59:07;20.80;99.90
37340;DHT22;23223;51.006;7.610;2022-07-21T16:01:52;20.90;99.90
37340;DHT22;23223;51.006;7.610;2022-07-21T16:04:17;20.80;99.90
37340;DHT22;23223;51.006;7.610;2022-07-21T16:06:43;20.60;99.90
37340;DHT22;23223;51.006;7.610;2022-07-21T16:09:09;20.60;99.90
37340;DHT22;23223;51.006;7.610;2022-07-21T16:11:34;20.50;99.90
37340;DHT22;23223;51.006;7.610;2022-07-21T16:14:00;20.50;99.90
37340;DHT22;23223;51.006;7.610;2022-07-21T16:16:25;20.40;99.90
37340;DHT22;23223;51.006;7.610;2022-07-21T16:18:51;20.50;99.90